Time;durP1;ratioP1;P1;durP2;ratioP2;P2;SDS_P1;SDS_P2;PMS_P1;PMS_P2;Temp;Humidity;BMP_temperature;BMP_pressure;BME280_temperature;BME280_humidity;BME280_pressure;Samples;Min_cycle;Max_cycle;Signal;HPM_P1;HPM_P2
2023/01/23 00:01:41;;;;;;;22.30;14.70;;;4.90;99.90;;;;;;4914869;29;20632;-71
2023/01/23 00:04:08;;;;;;;22.03;14.53;;;4.80;99.90;;;;;;4912911;29;20184;-70
2023/01/23 00:06:34;;;;;;;21.40;15.27;;;4.90;99.90;;;;;;4908948;29;20833;-70
2023/01/23 00:09:00;;;;;;;21.30;14.57;;;4.80;99.90;;;;;;4914735;29;20442;-70
2023/01/23 00:11:31;;;;;;;19.00;14.73;;;4.90;99.90;;;;;;4914036;29;20184;-70
2023/01/23 00:13:57;;;;;;;20.23;12.63;;;4.90;99.90;;;;;;4914956;29;20432;-70
2023/01/23 00:16:26;;;;;;;20.40;14.47;;;5.00;99.90;;;;;;4906580;29;20443;-71
2023/01/23 00:18:52;;;;;;;19.93;14.47;;;4.90;99.90;;;;;;4908158;29;20432;-72
2023/01/23 00:21:21;;;;;;;19.17;13.40;;;4.90;99.90;;;;;;4908946;29;20519;-73
2023/01/23 00:23:49;;;;;;;22.00;14.50;;;4.80;99.90;;;;;;4903606;29;20188;-72
2023/01/23 00:26:21;;;;;;;20.73;13.40;;;4.70;99.90;;;;;;4902076;29;20912;-73
2023/01/23 00:28:47;;;;;;;24.40;14.20;;;4.70;99.90;;;;;;4900012;29;20443;-73
2023/01/23 00:31:19;;;;;;;20.33;15.47;;;4.70;99.90;;;;;;4898561;29;20563;-72
2023/01/23 00:33:45;;;;;;;19.90;12.37;;;4.70;99.90;;;;;;4913890;29;20190;-73
2023/01/23 00:36:12;;;;;;;22.87;13.70;;;4.70;99.90;;;;;;4912337;29;20443;-73
2023/01/23 00:38:37;;;;;;;23.50;15.90;;;4.70;99.90;;;;;;4902049;29;20184;-72
2023/01/23 00:41:03;;;;;;;23.40;14.07;;;4.70;99.90;;;;;;4903823;29;20444;-72
2023/01/23 00:43:29;;;;;;;21.57;13.97;;;4.70;99.90;;;;;;4906481;29;20815;-72
2023/01/23 00:45:55;;;;;;;18.70;14.10;;;4.70;99.90;;;;;;4906606;29;20895;-71
2023/01/23 00:48:21;;;;;;;24.70;15.33;;;4.80;99.90;;;;;;4905550;29;20544;-72
2023/01/23 00:50:47;;;;;;;22.13;14.27;;;4.80;99.90;;;;;;4904242;29;20315;-72
2023/01/23 00:53:13;;;;;;;21.40;15.27;;;4.70;99.90;;;;;;4902371;29;20242;-72
2023/01/23 00:55:39;;;;;;;21.60;13.30;;;4.70;99.90;;;;;;4900630;29;20574;-71
2023/01/23 00:58:05;;;;;;;23.60;13.30;;;4.70;99.90;;;;;;4903233;29;20435;-72
2023/01/23 01:00:30;;;;;;;20.30;13.97;;;4.70;99.90;;;;;;4916043;29;20439;-69
2023/01/23 01:02:56;;;;;;;21.10;15.03;;;4.70;99.90;;;;;;4914045;29;20218;-69
2023/01/23 01:05:21;;;;;;;21.53;13.90;;;4.70;99.90;;;;;;4912564;29;20184;-70
2023/01/23 01:07:47;;;;;;;20.77;14.90;;;4.70;99.90;;;;;;4910679;29;20275;-70
2023/01/23 01:10:13;;;;;;;22.50;15.47;;;4.70;99.90;;;;;;4909352;29;20191;-70
2023/01/23 01:12:39;;;;;;;21.00;14.60;;;4.70;99.90;;;;;;4908181;29;20192;-70
2023/01/23 01:15:06;;;;;;;22.07;14.37;;;4.70;99.90;;;;;;4906197;29;20792;-69
2023/01/23 01:17:31;;;;;;;21.70;13.83;;;4.70;99.90;;;;;;4903730;29;20187;-69
2023/01/23 01:19:57;;;;;;;17.73;12.10;;;4.70;99.90;;;;;;4903098;29;20511;-69
2023/01/23 01:22:22;;;;;;;20.63;13.37;;;4.70;99.90;;;;;;4910674;29;20290;-69
2023/01/23 01:24:48;;;;;;;19.23;13.83;;;4.70;99.90;;;;;;4916739;29;20559;-74
2023/01/23 01:27:13;;;;;;;19.10;13.50;;;4.80;99.90;;;;;;4916130;29;20239;-73
2023/01/23 01:29:39;;;;;;;17.30;12.67;;;4.80;99.90;;;;;;4914476;29;20669;-73
2023/01/23 01:32:05;;;;;;;17.33;13.47;;;4.80;99.90;;;;;;4912899;29;20728;-73
2023/01/23 01:34:30;;;;;;;20.67;12.30;;;4.80;99.90;;;;;;4911697;29;20193;-73
2023/01/23 01:36:56;;;;;;;20.67;12.57;;;4.70;99.90;;;;;;4909938;29;20211;-73
2023/01/23 01:39:21;;;;;;;17.97;13.00;;;4.70;99.90;;;;;;4908192;29;20195;-73
2023/01/23 01:41:47;;;;;;;20.27;13.20;;;4.70;99.90;;;;;;4905367;29;20196;-71
2023/01/23 01:44:20;;;;;;;18.30;13.23;;;4.70;99.90;;;;;;4911335;29;20191;-72
2023/01/23 01:46:47;;;;;;;20.70;14.37;;;4.70;99.90;;;;;;4911968;29;20220;-71
2023/01/23 01:49:23;;;;;;;21.77;13.97;;;4.70;99.90;;;;;;4914352;29;20940;-72
2023/01/23 01:52:03;;;;;;;15.60;11.83;;;4.70;99.90;;;;;;4899372;29;20448;-70
2023/01/23 01:54:41;;;;;;;17.33;12.20;;;4.70;99.90;;;;;;4898995;29;20478;-70
2023/01/23 01:57:15;;;;;;;20.60;13.20;;;4.70;99.90;;;;;;4901094;29;20453;-70
2023/01/23 02:00:11;;;;;;;20.77;13.43;;;4.70;99.90;;;;;;4902531;29;20448;-68
2023/01/23 02:03:01;;;;;;;23.47;13.17;;;4.70;99.90;;;;;;4900341;29;20446;-68
2023/01/23 02:05:30;;;;;;;20.70;13.87;;;4.70;99.90;;;;;;4906572;29;20543;-68
2023/01/23 02:08:05;;;;;;;22.53;14.23;;;4.70;99.90;;;;;;4908039;29;20483;-68
2023/01/23 02:10:35;;;;;;;22.30;14.73;;;4.70;99.90;;;;;;4910128;29;20800;-68
2023/01/23 02:13:22;;;;;;;21.43;13.70;;;4.70;99.90;;;;;;4908371;29;20479;-68
2023/01/23 02:15:48;;;;;;;24.67;15.30;;;4.70;99.90;;;;;;4901481;29;20535;-68
2023/01/23 02:18:14;;;;;;;20.97;13.07;;;4.70;99.90;;;;;;4899713;29;21046;-68
2023/01/23 02:20:40;;;;;;;21.00;13.20;;;4.70;99.90;;;;;;4915525;29;20539;-68
2023/01/23 02:23:27;;;;;;;19.77;12.63;;;4.70;99.90;;;;;;4903519;29;20460;-69
2023/01/23 02:26:02;;;;;;;19.67;13.27;;;4.70;99.90;;;;;;4901202;29;20448;-69
2023/01/23 02:28:51;;;;;;;25.40;14.20;;;4.70;99.90;;;;;;4911232;29;20447;-70
2023/01/23 02:31:17;;;;;;;20.03;13.17;;;4.70;99.90;;;;;;4909230;29;20468;-70
2023/01/23 02:33:48;;;;;;;20.77;13.10;;;4.70;99.90;;;;;;4907795;29;20456;-71
2023/01/23 02:36:15;;;;;;;22.40;13.23;;;4.70;99.90;;;;;;4905913;29;20788;-70
2023/01/23 02:39:01;;;;;;;20.90;14.07;;;4.70;99.90;;;;;;4904132;29;20527;-70
2023/01/23 02:41:32;;;;;;;18.27;14.10;;;4.70;99.90;;;;;;4902188;29;20963;-71
2023/01/23 02:44:02;;;;;;;23.17;14.23;;;4.70;99.90;;;;;;4900428;29;20432;-68
2023/01/23 02:46:27;;;;;;;22.30;13.23;;;4.70;99.90;;;;;;4915316;29;20517;-70
2023/01/23 02:48:53;;;;;;;24.27;15.00;;;4.70;99.90;;;;;;4915673;29;20873;-70
2023/01/23 02:51:20;;;;;;;28.00;14.70;;;4.70;99.90;;;;;;4913934;29;20773;-70
2023/01/23 02:53:46;;;;;;;21.73;13.67;;;4.70;99.90;;;;;;4912316;29;20191;-70
2023/01/23 02:56:12;;;;;;;25.40;14.63;;;4.70;99.90;;;;;;4910680;29;20440;-70
2023/01/23 03:01:24;;;;;;;23.30;13.93;;;4.70;99.90;;;;;;4907309;29;20490;-70
2023/01/23 03:03:52;;;;;;;20.63;14.83;;;4.70;99.90;;;;;;4905717;29;20881;-71
2023/01/23 03:06:18;;;;;;;23.47;14.50;;;4.70;99.90;;;;;;4909817;29;20474;-71
2023/01/23 03:08:46;;;;;;;21.87;12.93;;;4.70;99.90;;;;;;4911717;29;20436;-71
2023/01/23 03:11:14;;;;;;;22.67;15.20;;;4.70;99.90;;;;;;4913261;29;20503;-69
2023/01/23 03:13:39;;;;;;;26.63;16.50;;;4.80;99.90;;;;;;4898649;29;20570;-69
2023/01/23 03:16:06;;;;;;;23.50;15.60;;;4.80;99.90;;;;;;4897936;29;20519;-69
2023/01/23 03:18:32;;;;;;;21.13;14.50;;;4.80;99.90;;;;;;4899816;29;20196;-69
2023/01/23 03:21:05;;;;;;;19.20;12.97;;;4.80;99.90;;;;;;4901320;29;20532;-69
2023/01/23 03:23:31;;;;;;;21.77;14.57;;;4.80;99.90;;;;;;4902799;29;20764;-68
2023/01/23 03:25:59;;;;;;;28.70;15.30;;;4.90;99.90;;;;;;4904562;29;20439;-68
2023/01/23 03:31:11;;;;;;;23.70;14.57;;;4.80;99.90;;;;;;4908218;29;20831;-68
2023/01/23 03:33:38;;;;;;;25.07;15.00;;;4.70;99.90;;;;;;4903182;29;20448;-68
2023/01/23 03:36:04;;;;;;;26.27;14.20;;;4.70;99.90;;;;;;4901580;29;20944;-68
2023/01/23 03:38:30;;;;;;;24.40;14.80;;;4.70;99.90;;;;;;4900081;29;20832;-68
2023/01/23 05:31:21;;;;;;;21.07;12.90;;;4.50;99.90;;;;;;5498015;23;20847;-71
2023/01/23 05:33:46;;;;;;;21.80;13.50;;;4.40;99.90;;;;;;4899824;29;20449;-73
2023/01/23 05:36:12;;;;;;;21.87;12.97;;;4.50;99.90;;;;;;4900274;29;20197;-70
2023/01/23 05:38:39;;;;;;;25.60;14.10;;;4.50;99.90;;;;;;4899559;29;20706;-72
2023/01/23 05:41:04;;;;;;;22.93;14.10;;;4.50;99.90;;;;;;4901469;29;20168;-70
2023/01/23 05:43:30;;;;;;;20.83;13.40;;;4.60;99.90;;;;;;4902956;29;20442;-72
2023/01/23 05:45:59;;;;;;;27.00;13.93;;;4.60;99.90;;;;;;4906055;29;20654;-77
2023/01/23 05:48:25;;;;;;;23.17;14.23;;;4.50;99.90;;;;;;4908995;29;20241;-76
2023/01/23 05:50:50;;;;;;;20.00;13.70;;;4.50;99.90;;;;;;4910360;29;20506;-77
2023/01/23 05:53:16;;;;;;;20.83;13.83;;;4.60;99.90;;;;;;4911904;29;20192;-76
2023/01/23 05:55:41;;;;;;;22.70;13.40;;;4.60;99.90;;;;;;4913724;29;20526;-76
2023/01/23 05:58:07;;;;;;;25.50;15.00;;;4.60;99.90;;;;;;4915644;29;20204;-81
2023/01/23 06:00:32;;;;;;;22.30;13.17;;;4.60;99.90;;;;;;4906153;29;20250;-77
2023/01/23 06:02:58;;;;;;;22.47;13.60;;;4.60;99.90;;;;;;4899764;29;20244;-78
2023/01/23 06:05:23;;;;;;;21.00;13.50;;;4.60;99.90;;;;;;4901369;29;20238;-80
2023/01/23 06:07:49;;;;;;;28.17;16.13;;;4.60;99.90;;;;;;4903072;29;20228;-80
2023/01/23 06:10:14;;;;;;;24.03;14.80;;;4.60;99.90;;;;;;4904704;29;20256;-72
2023/01/23 06:12:40;;;;;;;23.33;13.67;;;4.70;99.90;;;;;;4906454;29;20233;-78
2023/01/23 06:15:06;;;;;;;23.30;15.30;;;4.70;99.90;;;;;;4908080;29;20176;-74
2023/01/23 06:17:31;;;;;;;21.33;13.50;;;4.70;99.90;;;;;;4909415;29;20236;-75
2023/01/23 06:19:57;;;;;;;23.00;14.10;;;4.70;99.90;;;;;;4909425;29;20439;-76
2023/01/23 06:22:23;;;;;;;24.23;15.10;;;4.80;99.90;;;;;;4900187;29;20172;-76
2023/01/23 06:24:48;;;;;;;20.10;13.37;;;4.80;99.90;;;;;;4899167;29;20274;-76
2023/01/23 06:27:14;;;;;;;26.27;16.90;;;4.80;99.90;;;;;;4898253;29;20211;-76
2023/01/23 06:29:39;;;;;;;28.87;17.07;;;4.80;99.90;;;;;;4882318;29;20577;-76
2023/01/23 06:32:05;;;;;;;28.83;14.67;;;4.80;99.90;;;;;;4905288;29;20243;-76
2023/01/23 06:34:30;;;;;;;25.83;15.23;;;4.80;99.90;;;;;;4911053;29;20194;-73
2023/01/23 06:36:56;;;;;;;29.30;16.47;;;4.80;99.90;;;;;;4909345;29;20202;-73
2023/01/23 06:39:22;;;;;;;26.17;16.73;;;4.80;99.90;;;;;;4907675;29;20195;-73
2023/01/23 06:41:47;;;;;;;25.17;15.10;;;4.80;99.90;;;;;;4905926;29;20621;-72
2023/01/23 06:44:12;;;;;;;23.13;14.03;;;4.80;99.90;;;;;;4904382;29;20214;-73
2023/01/23 06:46:38;;;;;;;24.57;15.93;;;4.80;99.90;;;;;;4902449;29;20222;-70
2023/01/23 06:49:04;;;;;;;24.20;14.60;;;4.90;99.90;;;;;;4901013;29;20283;-76
2023/01/23 06:51:30;;;;;;;23.00;14.63;;;4.90;99.90;;;;;;4899426;29;20188;-75
2023/01/23 06:53:56;;;;;;;24.23;14.60;;;4.90;99.90;;;;;;4915718;29;20915;-75
2023/01/23 06:56:22;;;;;;;26.10;14.90;;;4.90;99.90;;;;;;4902689;29;20439;-75
2023/01/23 06:58:48;;;;;;;31.40;18.10;;;4.90;99.90;;;;;;4900963;29;20211;-77
2023/01/23 07:01:16;;;;;;;25.60;14.27;;;4.90;99.90;;;;;;4902600;29;20189;-77
2023/01/23 07:03:43;;;;;;;24.53;14.80;;;4.90;99.90;;;;;;4889848;29;20443;-77
2023/01/23 07:06:10;;;;;;;26.90;15.70;;;4.90;99.90;;;;;;4907937;29;20440;-76
2023/01/23 07:08:36;;;;;;;25.00;15.17;;;5.00;99.90;;;;;;4906179;29;20995;-76
2023/01/23 07:11:02;;;;;;;23.47;15.60;;;5.00;99.90;;;;;;4903491;29;20436;-76
2023/01/23 07:13:27;;;;;;;26.07;15.57;;;5.00;99.90;;;;;;4902997;29;20653;-76
2023/01/23 07:15:53;;;;;;;24.73;13.73;;;4.90;99.90;;;;;;4911796;29;20522;-77
2023/01/23 07:18:19;;;;;;;22.17;13.63;;;5.00;99.90;;;;;;4915987;29;20184;-78
2023/01/23 07:20:45;;;;;;;24.13;14.80;;;5.00;99.90;;;;;;4916926;29;20198;-76
2023/01/23 07:23:11;;;;;;;25.23;14.17;;;5.00;99.90;;;;;;4915971;29;20187;-74
2023/01/23 07:25:37;;;;;;;23.00;13.93;;;5.00;99.90;;;;;;4907768;29;20542;-76
2023/01/23 07:28:03;;;;;;;19.93;13.37;;;5.00;99.90;;;;;;4901779;29;20228;-77
2023/01/23 07:30:29;;;;;;;22.63;14.47;;;5.00;99.90;;;;;;4896607;29;20919;-77
2023/01/23 07:32:54;;;;;;;28.47;13.60;;;4.90;99.90;;;;;;4911919;29;20203;-79
2023/01/23 07:35:20;;;;;;;28.00;14.13;;;4.90;99.90;;;;;;4910338;29;20738;-76
2023/01/23 07:37:46;;;;;;;28.83;16.43;;;5.00;99.90;;;;;;4908199;29;20282;-73
2023/01/23 07:40:11;;;;;;;22.13;13.57;;;5.00;99.90;;;;;;4906381;29;20224;-73
2023/01/23 07:42:38;;;;;;;25.90;14.27;;;5.10;99.90;;;;;;4904852;29;20216;-72
2023/01/23 07:45:05;;;;;;;24.37;16.20;;;5.00;99.90;;;;;;4910070;29;20210;-72
2023/01/23 07:47:30;;;;;;;30.53;13.80;;;5.00;99.90;;;;;;4911788;29;20829;-72
2023/01/23 07:49:56;;;;;;;27.37;14.73;;;4.90;99.90;;;;;;4912668;29;20446;-71
2023/01/23 07:52:23;;;;;;;22.73;13.53;;;4.90;99.90;;;;;;4913077;29;20195;-72
2023/01/23 07:54:48;;;;;;;25.10;13.53;;;4.90;99.90;;;;;;4915175;29;20197;-72
2023/01/23 07:57:14;;;;;;;26.43;14.60;;;5.10;99.90;;;;;;4913264;29;20978;-72
2023/01/23 07:59:39;;;;;;;26.70;14.97;;;5.10;99.90;;;;;;4911733;29;20201;-71
2023/01/23 08:02:05;;;;;;;22.30;13.60;;;5.10;99.90;;;;;;4909728;29;20603;-72
2023/01/23 08:04:30;;;;;;;21.00;12.67;;;5.10;99.90;;;;;;4907931;29;20243;-70
2023/01/23 08:06:56;;;;;;;34.20;16.10;;;5.10;99.90;;;;;;4912021;29;20204;-70
2023/01/23 08:09:21;;;;;;;18.40;11.83;;;5.20;99.90;;;;;;4914477;29;20188;-72
2023/01/23 08:11:50;;;;;;;25.20;14.97;;;5.20;99.90;;;;;;4914886;29;20184;-70
2023/01/23 08:14:16;;;;;;;26.90;15.83;;;5.30;99.90;;;;;;4901482;29;20224;-70
2023/01/23 08:16:41;;;;;;;27.43;15.43;;;5.30;99.90;;;;;;4900715;29;20479;-72
2023/01/23 08:19:07;;;;;;;25.47;15.07;;;5.30;99.90;;;;;;4908259;29;20188;-73
2023/01/23 08:21:33;;;;;;;21.43;13.23;;;5.20;99.90;;;;;;4911687;29;20189;-74
2023/01/23 08:24:01;;;;;;;20.40;12.83;;;5.20;99.90;;;;;;4906215;29;20566;-73
2023/01/23 08:26:27;;;;;;;22.20;13.77;;;5.20;99.90;;;;;;4907746;29;20220;-74
2023/01/23 08:28:53;;;;;;;22.20;13.60;;;5.20;99.90;;;;;;4909270;29;20488;-73
2023/01/23 08:31:18;;;;;;;21.63;12.10;;;5.30;99.90;;;;;;4910564;29;20315;-73
2023/01/23 08:33:44;;;;;;;22.67;13.77;;;5.30;99.90;;;;;;4912256;29;20927;-73
2023/01/23 08:36:11;;;;;;;22.43;15.30;;;5.30;99.90;;;;;;4912605;29;20517;-71
2023/01/23 08:38:37;;;;;;;18.10;11.80;;;5.40;99.90;;;;;;4915577;29;20539;-73
2023/01/23 08:41:03;;;;;;;22.13;12.43;;;5.60;99.90;;;;;;4904108;29;21073;-74
2023/01/23 08:43:29;;;;;;;19.70;11.63;;;5.60;99.90;;;;;;4900022;29;20263;-73
2023/01/23 08:45:56;;;;;;;18.40;11.87;;;5.60;99.90;;;;;;4884518;29;20567;-73
2023/01/23 08:48:23;;;;;;;21.27;13.33;;;5.50;99.90;;;;;;4911114;29;20515;-73
2023/01/23 08:50:50;;;;;;;20.40;11.87;;;5.40;99.90;;;;;;4914639;29;20506;-73
2023/01/23 08:53:16;;;;;;;16.33;11.40;;;5.40;99.90;;;;;;4907356;29;20504;-72
2023/01/23 08:55:41;;;;;;;21.73;11.50;;;5.30;99.90;;;;;;4890839;29;20439;-73
2023/01/23 08:58:11;;;;;;;17.60;11.17;;;5.30;99.90;;;;;;4909511;29;20325;-73
2023/01/23 09:00:38;;;;;;;16.13;10.57;;;5.30;99.90;;;;;;4911171;29;20686;-73
2023/01/23 09:03:04;;;;;;;17.90;12.00;;;5.30;99.90;;;;;;4905680;29;20448;-70
2023/01/23 09:05:30;;;;;;;18.53;11.47;;;5.20;99.90;;;;;;4902567;29;20947;-71
2023/01/23 09:07:57;;;;;;;19.27;12.23;;;5.30;99.90;;;;;;4900938;29;20565;-70
2023/01/23 09:10:24;;;;;;;17.03;11.63;;;5.30;99.90;;;;;;4899588;29;20816;-71
2023/01/23 09:12:53;;;;;;;19.67;10.80;;;5.30;99.90;;;;;;4900357;29;20441;-70
2023/01/23 09:15:21;;;;;;;18.57;12.63;;;5.30;99.90;;;;;;4914330;29;20440;-70
2023/01/23 09:17:47;;;;;;;15.70;10.77;;;5.30;99.90;;;;;;4903977;29;20443;-73
2023/01/23 09:20:12;;;;;;;19.83;11.00;;;5.20;99.90;;;;;;4905706;29;20436;-73
2023/01/23 09:22:38;;;;;;;16.73;10.87;;;5.10;99.90;;;;;;4908817;29;20948;-73
2023/01/23 09:25:04;;;;;;;16.20;10.43;;;5.20;99.90;;;;;;4909097;29;20509;-71
2023/01/23 09:27:30;;;;;;;20.63;10.57;;;5.20;99.90;;;;;;4913079;29;20288;-71
2023/01/23 09:29:55;;;;;;;18.47;10.70;;;5.10;99.90;;;;;;4910745;29;20431;-70
2023/01/23 09:32:21;;;;;;;17.20;11.47;;;5.10;99.90;;;;;;4913458;29;20223;-71
2023/01/23 09:34:47;;;;;;;19.63;11.50;;;5.00;99.90;;;;;;4915603;29;20630;-71
2023/01/23 09:37:14;;;;;;;16.83;11.40;;;5.10;99.90;;;;;;4917084;29;20540;-71
2023/01/23 09:39:44;;;;;;;16.83;11.30;;;5.10;99.90;;;;;;4912625;29;20232;-71
2023/01/23 09:42:18;;;;;;;14.87;10.00;;;5.20;99.90;;;;;;4901565;29;20471;-70
2023/01/23 09:44:58;;;;;;;18.70;11.63;;;5.10;99.90;;;;;;4903169;29;20479;-70
2023/01/23 09:48:01;;;;;;;14.77;10.97;;;5.20;99.90;;;;;;4904949;29;20571;-72
2023/01/23 09:50:32;;;;;;;20.07;11.87;;;5.20;99.90;;;;;;4906699;29;20455;-70
2023/01/23 09:53:07;;;;;;;18.37;11.90;;;5.30;99.90;;;;;;4907548;29;20651;-70
2023/01/23 09:55:44;;;;;;;19.73;12.23;;;5.30;99.90;;;;;;4907072;29;20522;-72
2023/01/23 09:58:22;;;;;;;18.60;10.97;;;5.30;99.90;;;;;;4903421;29;20436;-72
2023/01/23 10:00:50;;;;;;;18.10;11.67;;;5.30;99.90;;;;;;4901078;29;20436;-72
2023/01/23 10:03:16;;;;;;;17.63;11.17;;;5.30;99.90;;;;;;4899949;29;20448;-73
2023/01/23 10:06:10;;;;;;;16.73;11.20;;;5.30;99.90;;;;;;4899022;29;20433;-74
2023/01/23 10:09:17;;;;;;;14.70;9.60;;;5.40;99.90;;;;;;4914742;29;20238;-75
2023/01/23 10:12:10;;;;;;;14.73;9.30;;;5.40;99.90;;;;;;4909614;29;20450;-73
2023/01/23 10:15:17;;;;;;;17.13;9.80;;;5.60;99.90;;;;;;4904858;29;20798;-76
2023/01/23 10:17:57;;;;;;;11.03;8.83;;;5.70;99.90;;;;;;4908710;29;20479;-77
2023/01/23 10:20:38;;;;;;;15.00;9.23;;;5.60;99.90;;;;;;4909004;29;20575;-78
2023/01/23 10:23:06;;;;;;;12.33;8.70;;;5.50;99.90;;;;;;4904536;29;20443;-77
2023/01/23 10:25:36;;;;;;;14.77;9.67;;;5.50;99.90;;;;;;4913222;29;20820;-77
2023/01/23 10:28:29;;;;;;;12.43;8.83;;;5.40;99.90;;;;;;4911579;29;20904;-74
2023/01/23 10:30:59;;;;;;;13.87;9.13;;;5.50;99.90;;;;;;4915476;29;20562;-74
2023/01/23 10:33:48;;;;;;;17.30;10.50;;;5.50;99.90;;;;;;4916324;29;20451;-74
2023/01/23 10:36:24;;;;;;;14.90;10.27;;;5.40;99.90;;;;;;4914375;29;20789;-73
2023/01/23 10:39:33;;;;;;;14.27;9.60;;;5.50;99.90;;;;;;4902159;29;20444;-73
2023/01/23 10:41:59;;;;;;;15.00;10.47;;;5.40;99.90;;;;;;4910230;29;20529;-74
2023/01/23 10:44:24;;;;;;;16.43;9.87;;;5.40;99.90;;;;;;4908537;29;20847;-72
2023/01/23 10:46:55;;;;;;;15.20;10.50;;;5.40;99.90;;;;;;4907129;29;20233;-79
2023/01/23 10:49:31;;;;;;;19.10;10.60;;;5.40;99.90;;;;;;4910449;29;20187;-80
2023/01/23 10:51:57;;;;;;;16.23;10.50;;;5.40;99.90;;;;;;4907179;29;20435;-80
2023/01/23 10:54:25;;;;;;;16.40;9.90;;;5.40;99.90;;;;;;4908064;29;20559;-81
2023/01/23 10:57:03;;;;;;;16.03;11.10;;;5.40;99.90;;;;;;4904563;29;20180;-81
2023/01/23 10:59:33;;;;;;;20.30;12.43;;;5.40;99.90;;;;;;4906391;29;20483;-81
2023/01/23 11:02:24;;;;;;;19.70;10.70;;;5.40;99.90;;;;;;4906268;29;20460;-80
2023/01/23 11:04:50;;;;;;;17.27;10.50;;;5.40;99.90;;;;;;4905783;29;20936;-79
2023/01/23 11:07:19;;;;;;;16.90;11.63;;;5.30;99.90;;;;;;4912512;29;20505;-73
2023/01/23 11:09:55;;;;;;;16.50;12.20;;;5.30;99.90;;;;;;4913528;29;20192;-73
2023/01/23 11:12:32;;;;;;;17.00;10.97;;;5.30;99.90;;;;;;4911708;29;20432;-79
2023/01/23 11:15:30;;;;;;;19.60;11.60;;;5.50;99.90;;;;;;4912574;29;20900;-81
2023/01/23 11:17:57;;;;;;;19.70;12.50;;;5.70;99.90;;;;;;4914394;29;20439;-78
2023/01/23 11:20:37;;;;;;;20.57;12.37;;;6.00;99.90;;;;;;4915749;29;20489;-85
2023/01/23 11:23:09;;;;;;;19.10;12.70;;;6.10;99.90;;;;;;4905276;29;20436;-83
2023/01/23 11:25:35;;;;;;;20.20;13.00;;;6.40;99.90;;;;;;4909663;29;20452;-84
2023/01/23 11:28:29;;;;;;;14.70;10.00;;;6.50;99.90;;;;;;4917532;29;20868;-84
2023/01/23 11:31:03;;;;;;;18.60;12.00;;;6.60;99.90;;;;;;4918100;29;20234;-85
2023/01/23 11:33:53;;;;;;;16.67;11.30;;;6.70;99.90;;;;;;4914309;29;20439;-79
2023/01/23 11:36:34;;;;;;;15.23;10.80;;;6.70;99.90;;;;;;4908126;29;20432;-81
2023/01/23 11:39:15;;;;;;;14.30;11.47;;;6.80;99.90;;;;;;4912624;29;20519;-82
2023/01/23 11:41:42;;;;;;;15.80;10.90;;;6.80;99.90;;;;;;4911717;29;20478;-81
2023/01/23 11:44:15;;;;;;;18.83;12.30;;;6.90;99.90;;;;;;4912594;29;20443;-73
2023/01/23 11:47:05;;;;;;;18.67;11.97;;;6.70;99.90;;;;;;4905847;29;20906;-73
2023/01/23 11:49:58;;;;;;;15.93;11.37;;;6.60;99.90;;;;;;4903991;29;20524;-72
2023/01/23 11:52:46;;;;;;;18.03;10.50;;;6.50;99.90;;;;;;4902505;29;20424;-72
2023/01/23 11:55:29;;;;;;;16.10;10.63;;;6.30;99.90;;;;;;4918753;29;20514;-72
2023/01/23 11:58:35;;;;;;;13.63;9.57;;;6.10;99.90;;;;;;4916945;29;20439;-72
2023/01/23 12:01:21;;;;;;;17.57;10.90;;;6.00;99.90;;;;;;4914393;29;20534;-72
2023/01/23 12:04:15;;;;;;;16.77;10.40;;;6.00;99.90;;;;;;4912897;29;20467;-72
2023/01/23 12:06:41;;;;;;;14.03;10.73;;;5.90;99.90;;;;;;4910633;29;20469;-72
2023/01/23 12:09:15;;;;;;;18.03;11.63;;;5.90;99.90;;;;;;4909179;29;20432;-72
2023/01/23 12:11:55;;;;;;;14.10;11.53;;;6.00;99.90;;;;;;4911774;29;20194;-72
2023/01/23 12:14:32;;;;;;;17.77;12.03;;;5.90;99.90;;;;;;4905317;29;20441;-72
2023/01/23 12:17:14;;;;;;;14.70;10.50;;;5.90;99.90;;;;;;4915357;29;20934;-72
2023/01/23 12:20:00;;;;;;;16.47;12.27;;;5.90;99.90;;;;;;4901436;29;20436;-72
2023/01/23 12:22:49;;;;;;;17.23;11.90;;;5.90;99.90;;;;;;4900622;29;20533;-72
2023/01/23 12:25:27;;;;;;;16.77;11.20;;;5.90;99.90;;;;;;4902524;29;20428;-72
2023/01/23 12:28:15;;;;;;;22.57;13.20;;;5.80;99.90;;;;;;4903813;29;20483;-72
2023/01/23 12:30:43;;;;;;;16.43;10.97;;;5.80;99.90;;;;;;4899263;29;20976;-72
2023/01/23 12:33:28;;;;;;;20.97;13.23;;;5.80;99.90;;;;;;4907473;29;20468;-72
2023/01/23 12:36:17;;;;;;;18.30;12.87;;;5.80;99.90;;;;;;4909097;29;20446;-72
2023/01/23 12:38:57;;;;;;;19.17;13.07;;;5.80;99.90;;;;;;4907173;29;20446;-71
2023/01/23 12:41:38;;;;;;;22.53;12.77;;;5.80;99.90;;;;;;4904812;29;20519;-71
2023/01/23 12:44:19;;;;;;;17.97;12.60;;;5.80;99.90;;;;;;4903477;29;20826;-71
2023/01/23 12:46:56;;;;;;;17.73;11.70;;;5.80;99.90;;;;;;4901156;29;20527;-71
2023/01/23 12:49:48;;;;;;;20.50;13.27;;;5.80;99.90;;;;;;4903437;29;20531;-71
2023/01/23 12:52:23;;;;;;;22.87;12.77;;;5.80;99.90;;;;;;4915733;29;20460;-72
2023/01/23 12:55:06;;;;;;;20.70;12.87;;;5.80;99.90;;;;;;4914581;29;20448;-72
2023/01/23 12:57:39;;;;;;;17.10;11.93;;;5.80;99.90;;;;;;4912184;29;20450;-72
2023/01/23 13:00:22;;;;;;;18.20;13.37;;;5.80;99.90;;;;;;4906905;29;20432;-71
2023/01/23 13:02:57;;;;;;;19.43;11.67;;;5.80;99.90;;;;;;4908573;29;20435;-72
2023/01/23 13:05:33;;;;;;;19.47;12.67;;;5.70;99.90;;;;;;4907050;29;20438;-71
2023/01/23 13:08:26;;;;;;;17.13;11.63;;;5.70;99.90;;;;;;4912295;29;20577;-71
2023/01/23 13:14:23;;;;;;;18.93;12.70;;;5.70;99.90;;;;;;4900420;29;20436;-72
2023/01/23 13:16:51;;;;;;;16.00;10.20;;;5.70;99.90;;;;;;4899390;29;20448;-71
2023/01/23 13:22:24;;;;;;;19.87;12.50;;;5.70;99.90;;;;;;4902791;29;20443;-71
2023/01/23 13:25:16;;;;;;;16.10;11.07;;;5.80;99.90;;;;;;4904755;29;20424;-74
2023/01/23 13:27:50;;;;;;;21.07;13.17;;;5.80;99.90;;;;;;4902277;29;20544;-78
2023/01/23 13:30:24;;;;;;;20.50;12.37;;;5.80;99.90;;;;;;4909363;29;20439;-77
2023/01/23 13:32:52;;;;;;;18.13;12.23;;;5.80;99.90;;;;;;4909194;29;20947;-77
2023/01/23 13:35:43;;;;;;;18.87;12.00;;;5.90;99.90;;;;;;4909793;29;20428;-78
2023/01/23 13:38:21;;;;;;;21.73;12.30;;;5.80;99.90;;;;;;4906940;29;20444;-78
2023/01/23 13:41:04;;;;;;;21.57;12.50;;;5.80;99.90;;;;;;4916282;29;20886;-79
2023/01/23 13:43:48;;;;;;;16.33;10.50;;;5.90;99.90;;;;;;4899463;29;21017;-72
2023/01/23 13:46:43;;;;;;;18.23;12.10;;;5.90;99.90;;;;;;4900234;29;20488;-72
2023/01/23 13:49:49;;;;;;;19.43;12.50;;;6.00;99.90;;;;;;4901806;29;20964;-72
2023/01/23 13:58:22;;;;;;;20.03;13.07;;;5.90;99.90;;;;;;4907293;29;20523;-72
2023/01/23 14:10:17;;;;;;;18.87;11.17;;;5.80;99.90;;;;;;4899241;29;21048;-72
2023/01/23 14:12:42;;;;;;;17.70;12.40;;;5.90;99.90;;;;;;4912032;29;20454;-72
2023/01/23 14:18:03;;;;;;;16.83;11.13;;;5.80;99.90;;;;;;4909204;29;20201;-72
2023/01/23 14:20:38;;;;;;;17.90;11.63;;;5.80;99.90;;;;;;4910305;29;20444;-72
2023/01/23 14:23:05;;;;;;;19.97;13.10;;;5.80;99.90;;;;;;4908909;29;20538;-72
2023/01/23 14:25:32;;;;;;;18.87;12.33;;;5.80;99.90;;;;;;4907073;29;20545;-72
2023/01/23 14:28:02;;;;;;;20.77;12.87;;;5.70;99.90;;;;;;4905201;29;20825;-71
2023/01/23 14:30:30;;;;;;;20.20;11.93;;;5.80;99.90;;;;;;4903286;29;20512;-72
2023/01/23 14:32:57;;;;;;;17.80;11.80;;;5.80;99.90;;;;;;4901778;29;20458;-71
2023/01/23 14:35:31;;;;;;;19.37;11.63;;;5.80;99.90;;;;;;4900319;29;20455;-72
2023/01/23 14:38:00;;;;;;;23.43;13.43;;;5.80;99.90;;;;;;4912822;29;20550;-72
2023/01/23 14:40:26;;;;;;;19.87;12.37;;;5.90;99.90;;;;;;4898031;29;21182;-72
2023/01/23 14:43:02;;;;;;;17.10;11.10;;;5.90;99.90;;;;;;4913596;29;20436;-72
2023/01/23 14:45:30;;;;;;;20.87;13.10;;;6.00;99.90;;;;;;4911613;29;20440;-71
2023/01/23 14:47:55;;;;;;;18.83;11.53;;;5.90;99.90;;;;;;4904548;29;20518;-72
2023/01/23 14:50:25;;;;;;;21.03;12.90;;;6.00;99.90;;;;;;4905865;29;20436;-72
2023/01/23 14:52:59;;;;;;;17.17;12.03;;;6.00;99.90;;;;;;4907334;29;20215;-72
2023/01/23 14:55:26;;;;;;;23.13;13.77;;;6.00;99.90;;;;;;4903762;29;20436;-72
2023/01/23 14:57:55;;;;;;;15.37;11.77;;;6.00;99.90;;;;;;4902945;29;20467;-72
2023/01/23 15:00:21;;;;;;;14.43;10.47;;;5.80;99.90;;;;;;4902926;29;20606;-71
2023/01/23 15:02:53;;;;;;;19.73;10.67;;;5.90;99.90;;;;;;4912796;29;20438;-71
2023/01/23 15:05:28;;;;;;;18.07;12.13;;;5.80;99.90;;;;;;4914642;29;20530;-71
2023/01/23 15:08:03;;;;;;;19.50;11.50;;;5.80;99.90;;;;;;4911919;29;20479;-72
2023/01/23 15:10:33;;;;;;;19.80;12.40;;;5.80;99.90;;;;;;4899575;29;20436;-74
2023/01/23 15:13:05;;;;;;;19.00;12.33;;;5.70;99.90;;;;;;4910708;29;20445;-74
2023/01/23 15:15:33;;;;;;;14.60;11.20;;;5.70;99.90;;;;;;4909653;29;20444;-75
2023/01/23 15:18:00;;;;;;;16.17;11.13;;;5.80;99.90;;;;;;4905861;29;20444;-73
2023/01/23 15:20:28;;;;;;;19.13;11.43;;;5.90;99.90;;;;;;4905841;29;20436;-75